Time;durP1;ratioP1;P1;durP2;ratioP2;P2;SDS_P1;SDS_P2;PMS_P1;PMS_P2;Temp;Humidity;BMP_temperature;BMP_pressure;BME280_temperature;BME280_humidity;BME280_pressure;Samples;Min_cycle;Max_cycle;Signal;HPM_P1;HPM_P2
2021/08/09 00:01:39;;;;;;;0.00;0.00;;;20.00;90.60;;;;;;5040852;28;20093;-88
2021/08/09 00:04:05;;;;;;;0.10;0.10;;;20.00;90.60;;;;;;5041150;28;20030;-88
2021/08/09 00:06:31;;;;;;;0.10;0.10;;;20.00;90.70;;;;;;5034816;28;20089;-88
2021/08/09 00:09:00;;;;;;;0.10;0.10;;;19.90;90.90;;;;;;5025309;28;20418;-88
2021/08/09 00:11:26;;;;;;;0.08;0.08;;;19.90;91.10;;;;;;5032748;28;20095;-88
2021/08/09 00:13:52;;;;;;;0.03;0.03;;;19.90;91.10;;;;;;5056818;28;20060;-88
2021/08/09 00:16:17;;;;;;;0.10;0.10;;;19.90;91.20;;;;;;5039138;28;20041;-88
2021/08/09 00:18:46;;;;;;;0.10;0.10;;;19.90;91.20;;;;;;5038601;28;20043;-88
2021/08/09 00:21:16;;;;;;;0.10;0.10;;;19.90;91.30;;;;;;5033336;28;20055;-88
2021/08/09 00:23:41;;;;;;;0.10;0.10;;;19.80;91.20;;;;;;5040222;28;20121;-88
2021/08/09 00:26:07;;;;;;;0.05;0.05;;;19.80;91.30;;;;;;5035858;28;20053;-88
2021/08/09 00:28:33;;;;;;;0.10;0.10;;;19.80;91.40;;;;;;5039669;28;20044;-88
2021/08/09 00:30:59;;;;;;;0.00;0.00;;;19.80;91.40;;;;;;5056116;28;20048;-88
2021/08/09 00:33:25;;;;;;;0.10;0.10;;;19.80;91.50;;;;;;5024426;28;20065;-88
2021/08/09 00:35:51;;;;;;;0.10;0.10;;;19.70;91.50;;;;;;5030439;28;20061;-88
2021/08/09 00:38:17;;;;;;;0.00;0.00;;;19.70;91.60;;;;;;5022288;28;20091;-88
2021/08/09 00:40:43;;;;;;;0.00;0.00;;;19.70;91.60;;;;;;5017848;28;20072;-88
2021/08/09 00:43:08;;;;;;;0.00;0.00;;;19.70;91.70;;;;;;5018139;28;20056;-88
2021/08/09 00:45:34;;;;;;;0.00;0.00;;;19.60;91.80;;;;;;5018119;28;20505;-88
2021/08/09 00:48:00;;;;;;;0.00;0.00;;;19.60;91.90;;;;;;5018880;28;20522;-88
2021/08/09 00:50:26;;;;;;;0.10;0.10;;;19.60;92.00;;;;;;5021134;28;20077;-88
2021/08/09 00:52:52;;;;;;;0.00;0.00;;;19.60;92.10;;;;;;5039238;28;20387;-88
2021/08/09 00:55:18;;;;;;;0.10;0.10;;;19.60;92.20;;;;;;5037074;28;20073;-88
2021/08/09 00:57:44;;;;;;;0.10;0.10;;;19.50;92.20;;;;;;5044114;28;20018;-88
2021/08/09 01:00:10;;;;;;;0.10;0.10;;;19.50;92.40;;;;;;5040080;28;20065;-88
2021/08/09 01:02:36;;;;;;;0.10;0.10;;;19.50;92.40;;;;;;5061716;28;20077;-88
2021/08/09 01:05:04;;;;;;;0.00;0.00;;;19.50;92.50;;;;;;5043403;28;20029;-88
2021/08/09 01:07:59;;;;;;;0.10;0.10;;;19.40;92.60;;;;;;5041066;28;20052;-88
2021/08/09 01:10:34;;;;;;;0.10;0.10;;;19.40;92.70;;;;;;5037862;28;20075;-88
2021/08/09 01:13:08;;;;;;;;;;;19.30;92.80;;;;;;5038636;28;20033;-88
2021/08/09 01:15:42;;;;;;;0.10;0.10;;;19.30;92.80;;;;;;5037710;28;19917;-88
2021/08/09 01:18:09;;;;;;;0.10;0.10;;;19.20;92.90;;;;;;5037820;28;20037;-87
2021/08/09 01:20:48;;;;;;;0.10;0.10;;;19.20;93.10;;;;;;5029496;28;20084;-88
2021/08/09 01:23:36;;;;;;;0.10;0.10;;;19.20;93.50;;;;;;5023548;28;20183;-88
2021/08/09 01:26:34;;;;;;;0.00;0.00;;;19.10;93.70;;;;;;5022756;28;20060;-88
2021/08/09 01:29:00;;;;;;;0.00;0.00;;;19.10;93.70;;;;;;5039221;28;20605;-88
2021/08/09 01:31:33;;;;;;;0.00;0.00;;;19.10;93.60;;;;;;5024710;28;20033;-88
2021/08/09 01:33:59;;;;;;;0.00;0.00;;;19.10;93.80;;;;;;5028899;28;20020;-88
2021/08/09 01:36:28;;;;;;;0.00;0.00;;;19.10;93.80;;;;;;5060533;28;20010;-88
2021/08/09 01:38:54;;;;;;;0.10;0.10;;;19.10;93.90;;;;;;5039235;28;20041;-88
2021/08/09 01:41:23;;;;;;;0.00;0.00;;;19.00;94.10;;;;;;5037437;28;20036;-88
2021/08/09 01:43:49;;;;;;;0.00;0.00;;;19.00;94.20;;;;;;5043499;28;20033;-88
2021/08/09 01:46:15;;;;;;;0.00;0.00;;;19.00;94.40;;;;;;5026181;28;20060;-88
2021/08/09 01:48:43;;;;;;;0.10;0.10;;;19.00;94.50;;;;;;5020665;28;20044;-88
2021/08/09 01:51:09;;;;;;;0.10;0.10;;;19.00;94.60;;;;;;5021141;28;20046;-88
2021/08/09 01:53:35;;;;;;;0.10;0.10;;;19.00;94.70;;;;;;5021200;28;20041;-88
2021/08/09 01:56:01;;;;;;;0.10;0.10;;;19.00;94.80;;;;;;5035178;28;20391;-88
2021/08/09 01:58:27;;;;;;;0.00;0.00;;;19.00;94.90;;;;;;5030310;28;20033;-88
2021/08/09 02:00:53;;;;;;;0.10;0.10;;;19.00;95.00;;;;;;5020907;28;20398;-89
2021/08/09 02:03:18;;;;;;;0.10;0.10;;;19.00;95.20;;;;;;5019869;28;20049;-88
2021/08/09 02:05:44;;;;;;;0.10;0.10;;;19.00;95.20;;;;;;5022582;28;20042;-88
2021/08/09 02:08:12;;;;;;;0.10;0.10;;;18.90;95.30;;;;;;5038610;28;20041;-88
2021/08/09 02:10:38;;;;;;;0.10;0.10;;;18.90;95.40;;;;;;5033441;28;20037;-89
2021/08/09 02:13:11;;;;;;;0.10;0.10;;;18.90;95.50;;;;;;5033664;28;20018;-88
2021/08/09 02:16:03;;;;;;;0.00;0.00;;;18.90;95.60;;;;;;5043511;28;20022;-88
2021/08/09 02:18:50;;;;;;;0.00;0.00;;;18.90;95.70;;;;;;5043397;28;20040;-88
2021/08/09 02:21:20;;;;;;;0.00;0.00;;;18.90;95.70;;;;;;5043071;28;20105;-88
2021/08/09 02:23:54;;;;;;;0.08;0.08;;;18.90;95.70;;;;;;5041788;28;20124;-88
2021/08/09 02:26:46;;;;;;;0.10;0.10;;;18.80;95.80;;;;;;5022190;28;20549;-88
2021/08/09 02:29:22;;;;;;;0.10;0.10;;;18.80;96.00;;;;;;5009840;28;20033;-88
2021/08/09 02:31:50;;;;;;;0.10;0.10;;;18.80;96.10;;;;;;5029974;28;20045;-88
2021/08/09 02:34:19;;;;;;;0.10;0.10;;;18.80;96.20;;;;;;5038038;28;20063;-89
2021/08/09 02:36:45;;;;;;;0.00;0.00;;;18.80;96.40;;;;;;5019530;28;20033;-88
2021/08/09 02:39:12;;;;;;;0.00;0.00;;;18.70;96.60;;;;;;5018695;28;20025;-88
2021/08/09 02:41:39;;;;;;;0.10;0.10;;;18.70;96.70;;;;;;5036556;28;20036;-88
2021/08/09 02:44:06;;;;;;;0.10;0.10;;;18.70;97.00;;;;;;5036977;28;20503;-88
2021/08/09 02:46:32;;;;;;;0.10;0.10;;;18.70;97.20;;;;;;5024863;28;20045;-88
2021/08/09 02:48:59;;;;;;;0.10;0.10;;;18.70;97.30;;;;;;5051647;28;20017;-88
2021/08/09 02:51:25;;;;;;;0.10;0.10;;;18.70;97.40;;;;;;5023925;28;20068;-88
2021/08/09 02:53:52;;;;;;;0.10;0.10;;;18.70;97.40;;;;;;5019470;28;20030;-88
2021/08/09 02:56:23;;;;;;;0.00;0.00;;;18.70;97.50;;;;;;5019097;28;20041;-88
2021/08/09 02:58:50;;;;;;;0.10;0.10;;;18.70;97.50;;;;;;5019109;28;20033;-89
2021/08/09 03:01:18;;;;;;;0.08;0.08;;;18.70;97.40;;;;;;5037151;28;20493;-88
2021/08/09 03:03:48;;;;;;;0.10;0.10;;;18.80;97.60;;;;;;5018786;28;20032;-88
2021/08/09 03:06:14;;;;;;;0.00;0.00;;;18.80;97.60;;;;;;5019943;28;20401;-88
2021/08/09 03:08:41;;;;;;;0.00;0.00;;;18.80;97.70;;;;;;5017709;28;20029;-88
2021/08/09 03:11:08;;;;;;;0.10;0.10;;;18.80;97.70;;;;;;5036578;28;20115;-88
2021/08/09 03:13:35;;;;;;;0.08;0.08;;;18.80;97.80;;;;;;5017851;28;20116;-88
2021/08/09 03:16:00;;;;;;;0.10;0.10;;;18.80;97.90;;;;;;5027456;28;20044;-88
2021/08/09 03:18:33;;;;;;;0.10;0.10;;;18.90;97.90;;;;;;5020166;28;20026;-88
2021/08/09 03:20:59;;;;;;;0.10;0.10;;;18.90;97.90;;;;;;5017258;28;20264;-88
2021/08/09 03:23:25;;;;;;;0.10;0.10;;;19.00;97.80;;;;;;5028348;28;20128;-88
2021/08/09 03:25:50;;;;;;;0.00;0.00;;;19.00;97.70;;;;;;5030718;28;20054;-88
2021/08/09 03:28:16;;;;;;;0.10;0.10;;;19.10;97.50;;;;;;5019703;28;20116;-88
2021/08/09 03:30:42;;;;;;;0.10;0.10;;;19.20;97.40;;;;;;5018756;28;20047;-88
2021/08/09 03:33:07;;;;;;;0.10;0.10;;;19.30;97.30;;;;;;5018930;28;20478;-88
2021/08/09 03:35:33;;;;;;;0.10;0.10;;;19.40;97.20;;;;;;5019758;28;20407;-88
2021/08/09 03:37:59;;;;;;;0.10;0.10;;;19.40;96.90;;;;;;5037800;28;20029;-88
2021/08/09 03:40:24;;;;;;;0.10;0.10;;;19.50;96.80;;;;;;5020867;28;20080;-88
2021/08/09 03:42:52;;;;;;;0.00;0.00;;;19.50;96.70;;;;;;5020824;28;20034;-88
2021/08/09 03:45:18;;;;;;;0.10;0.10;;;19.60;96.50;;;;;;5028882;28;20092;-88
2021/08/09 03:47:43;;;;;;;0.10;0.10;;;19.60;96.50;;;;;;5026265;28;20037;-88
2021/08/09 03:50:09;;;;;;;0.10;0.10;;;19.70;96.40;;;;;;5019251;28;20042;-88
2021/08/09 03:52:35;;;;;;;0.10;0.10;;;19.70;96.20;;;;;;5019681;28;20475;-88
2021/08/09 03:55:01;;;;;;;0.10;0.10;;;19.80;96.00;;;;;;5020337;28;20034;-88
2021/08/09 03:57:27;;;;;;;0.10;0.10;;;19.80;95.90;;;;;;5019177;28;20041;-88
2021/08/09 03:59:53;;;;;;;0.08;0.08;;;19.90;96.00;;;;;;5023525;28;20045;-88
2021/08/09 04:02:24;;;;;;;0.10;0.10;;;20.00;95.80;;;;;;5026267;28;20033;-88
2021/08/09 04:04:50;;;;;;;0.00;0.00;;;20.20;95.40;;;;;;5033745;28;20073;-88
2021/08/09 04:07:16;;;;;;;0.00;0.00;;;20.30;94.90;;;;;;5026639;28;20046;-88
2021/08/09 04:09:41;;;;;;;0.00;0.00;;;20.40;94.40;;;;;;5018160;28;20068;-88
2021/08/09 04:12:07;;;;;;;0.00;0.00;;;20.60;94.00;;;;;;5018282;28;20128;-89
2021/08/09 04:14:33;;;;;;;0.00;0.00;;;20.70;93.70;;;;;;5020642;28;20073;-88
2021/08/09 04:16:59;;;;;;;0.00;0.00;;;20.90;93.30;;;;;;5029458;28;20478;-89
2021/08/09 04:19:24;;;;;;;0.00;0.00;;;21.00;92.90;;;;;;5022901;28;20499;-88
2021/08/09 04:21:50;;;;;;;0.10;0.10;;;21.10;92.40;;;;;;5023300;28;20037;-88
2021/08/09 04:24:16;;;;;;;0.00;0.00;;;21.30;92.00;;;;;;5041824;28;20033;-88
2021/08/09 04:26:41;;;;;;;0.00;0.00;;;21.40;91.70;;;;;;5023132;28;20056;-88
2021/08/09 04:29:07;;;;;;;0.00;0.00;;;21.50;91.40;;;;;;5023288;28;20034;-88
2021/08/09 04:31:34;;;;;;;0.00;0.00;;;21.70;91.10;;;;;;5021941;28;20048;-88
2021/08/09 04:33:59;;;;;;;0.00;0.00;;;21.80;90.80;;;;;;5022174;28;20037;-89
2021/08/09 04:36:25;;;;;;;0.00;0.00;;;22.00;90.40;;;;;;5026809;28;20044;-89
2021/08/09 04:38:51;;;;;;;0.08;0.08;;;22.10;89.90;;;;;;5022597;28;20025;-88
2021/08/09 04:41:16;;;;;;;0.00;0.00;;;22.20;89.20;;;;;;5022822;28;20041;-88
2021/08/09 04:43:42;;;;;;;0.00;0.00;;;22.40;88.50;;;;;;5024137;28;20410;-88
2021/08/09 04:46:08;;;;;;;0.00;0.00;;;22.60;87.90;;;;;;5023525;28;20052;-88
2021/08/09 04:48:34;;;;;;;0.00;0.00;;;22.70;87.50;;;;;;5023622;28;20037;-88
2021/08/09 04:51:00;;;;;;;0.00;0.00;;;22.90;87.60;;;;;;5039904;28;20038;-88
2021/08/09 04:53:26;;;;;;;0.10;0.10;;;23.20;87.70;;;;;;5043982;28;20048;-88
2021/08/09 04:55:52;;;;;;;0.05;0.05;;;23.40;87.20;;;;;;5039520;28;20051;-88
2021/08/09 04:58:18;;;;;;;0.00;0.00;;;23.70;87.10;;;;;;5041792;28;20046;-88
2021/08/09 05:00:44;;;;;;;0.00;0.00;;;24.00;86.40;;;;;;5025802;28;20109;-89
2021/08/09 05:03:10;;;;;;;0.00;0.00;;;24.50;85.10;;;;;;5023541;28;20569;-89
2021/08/09 05:05:35;;;;;;;0.10;0.10;;;24.80;83.50;;;;;;5026005;28;20061;-89
2021/08/09 05:08:01;;;;;;;0.00;0.00;;;25.10;82.40;;;;;;5032344;28;20048;-88
2021/08/09 05:10:27;;;;;;;0.00;0.00;;;25.50;81.80;;;;;;5026717;28;20037;-89
2021/08/09 05:12:53;;;;;;;0.00;0.00;;;25.70;80.20;;;;;;5021462;28;20065;-89
2021/08/09 05:15:22;;;;;;;0.00;0.00;;;26.20;79.50;;;;;;5021789;28;20092;-89
2021/08/09 05:17:47;;;;;;;0.00;0.00;;;26.50;77.90;;;;;;5025158;28;20441;-89
2021/08/09 05:20:13;;;;;;;0.00;0.00;;;26.80;76.80;;;;;;5036234;28;20033;-89
2021/08/09 05:22:39;;;;;;;0.00;0.00;;;27.20;75.70;;;;;;5043373;28;20038;-88
2021/08/09 05:25:10;;;;;;;0.00;0.00;;;27.60;74.30;;;;;;5033608;28;20041;-88
2021/08/09 05:27:39;;;;;;;0.00;0.00;;;27.90;73.50;;;;;;5039671;28;20072;-88
2021/08/09 05:30:07;;;;;;;0.00;0.00;;;28.20;72.40;;;;;;5041105;28;20041;-89
2021/08/09 05:32:34;;;;;;;0.00;0.00;;;28.50;71.60;;;;;;5025012;28;20041;-89
2021/08/09 05:35:00;;;;;;;0.00;0.00;;;28.70;71.30;;;;;;5024971;28;20046;-88
2021/08/09 05:37:31;;;;;;;0.00;0.00;;;29.00;69.70;;;;;;5026930;28;20376;-88
2021/08/09 05:39:58;;;;;;;0.00;0.00;;;29.40;68.70;;;;;;5034377;28;20029;-90
2021/08/09 05:42:24;;;;;;;0.00;0.00;;;29.70;68.00;;;;;;5022436;28;20037;-89
2021/08/09 05:44:50;;;;;;;0.00;0.00;;;30.00;67.10;;;;;;5040739;28;20087;-90
2021/08/09 05:47:16;;;;;;;0.00;0.00;;;30.20;66.30;;;;;;5026255;28;20095;-89
2021/08/09 05:49:42;;;;;;;0.00;0.00;;;30.40;65.60;;;;;;5030022;28;20475;-89
2021/08/09 05:52:08;;;;;;;0.00;0.00;;;30.70;65.40;;;;;;5022879;28;20040;-89
2021/08/09 05:54:33;;;;;;;0.00;0.00;;;31.00;64.50;;;;;;5025143;28;20057;-89
2021/08/09 05:56:59;;;;;;;0.00;0.00;;;31.40;64.00;;;;;;5027307;28;20047;-90
2021/08/09 05:59:25;;;;;;;0.00;0.00;;;31.60;63.10;;;;;;5025821;28;20463;-88
2021/08/09 06:01:50;;;;;;;0.00;0.00;;;31.70;62.10;;;;;;5023816;28;20041;-88
2021/08/09 06:04:25;;;;;;;0.00;0.00;;;31.80;61.70;;;;;;5025678;28;20131;-89
2021/08/09 06:06:53;;;;;;;0.00;0.00;;;31.90;61.30;;;;;;5025072;28;20045;-89
2021/08/09 06:09:19;;;;;;;0.00;0.00;;;32.10;61.10;;;;;;5026705;28;20103;-88
2021/08/09 06:11:45;;;;;;;0.00;0.00;;;32.30;60.80;;;;;;5024415;28;20406;-89
2021/08/09 06:14:11;;;;;;;0.00;0.00;;;32.50;60.30;;;;;;5034478;28;20025;-90
2021/08/09 06:16:36;;;;;;;0.00;0.00;;;32.50;59.50;;;;;;5039712;28;20101;-89
2021/08/09 06:19:02;;;;;;;0.00;0.00;;;32.60;59.60;;;;;;5041925;28;20040;-88
2021/08/09 06:21:28;;;;;;;0.00;0.00;;;32.80;59.50;;;;;;5043085;28;20033;-90
2021/08/09 06:23:54;;;;;;;0.05;0.05;;;33.10;58.90;;;;;;5042904;28;20030;-90
2021/08/09 06:26:20;;;;;;;0.00;0.00;;;33.30;58.60;;;;;;5041774;28;20061;-89
2021/08/09 06:28:45;;;;;;;0.00;0.00;;;33.40;58.40;;;;;;5029098;28;20034;-91
2021/08/09 06:31:11;;;;;;;0.00;0.00;;;33.70;57.70;;;;;;5021631;28;20045;-91
2021/08/09 06:33:37;;;;;;;0.00;0.00;;;33.90;57.50;;;;;;5019910;28;20041;-90
2021/08/09 06:36:03;;;;;;;0.00;0.00;;;34.20;57.10;;;;;;5027744;28;20065;-88
2021/08/09 06:38:29;;;;;;;0.00;0.00;;;34.30;56.70;;;;;;5030399;28;20097;-89
2021/08/09 06:40:54;;;;;;;0.00;0.00;;;34.60;56.00;;;;;;5022253;28;20080;-88
2021/08/09 06:43:20;;;;;;;0.00;0.00;;;34.70;55.90;;;;;;5021872;28;20037;-89
2021/08/09 06:45:46;;;;;;;0.00;0.00;;;34.90;55.40;;;;;;5025134;28;20053;-88
2021/08/09 06:48:12;;;;;;;0.10;0.10;;;35.00;55.10;;;;;;5024771;28;20077;-89
2021/08/09 06:50:42;;;;;;;0.00;0.00;;;35.20;54.70;;;;;;5019791;28;20485;-89
2021/08/09 06:53:09;;;;;;;0.10;0.10;;;35.30;54.40;;;;;;5020745;28;20087;-88
2021/08/09 06:55:35;;;;;;;0.10;0.10;;;35.40;54.40;;;;;;5019756;28;20095;-89
2021/08/09 06:58:00;;;;;;;0.00;0.00;;;35.50;54.30;;;;;;5019787;28;20500;-89
2021/08/09 07:00:26;;;;;;;0.00;0.00;;;35.60;54.10;;;;;;5019242;28;20046;-89
2021/08/09 07:02:52;;;;;;;0.00;0.00;;;35.80;53.80;;;;;;5018948;28;20107;-88
2021/08/09 07:05:22;;;;;;;0.00;0.00;;;36.10;53.80;;;;;;5025318;28;20034;-88
2021/08/09 07:07:51;;;;;;;0.03;0.03;;;36.30;52.90;;;;;;5014461;28;20068;-90
2021/08/09 07:10:17;;;;;;;0.03;0.03;;;36.50;52.80;;;;;;5023790;28;20045;-90
2021/08/09 07:12:43;;;;;;;0.00;0.00;;;36.80;52.90;;;;;;5020222;28;20356;-91
2021/08/09 07:15:10;;;;;;;0.10;0.10;;;37.10;52.40;;;;;;5021105;28;20049;-93
2021/08/09 07:17:41;;;;;;;0.00;0.00;;;37.30;52.10;;;;;;5023216;28;20041;-93
2021/08/09 07:20:10;;;;;;;0.00;0.00;;;37.50;51.80;;;;;;5022810;28;20041;-93
2021/08/09 07:22:41;;;;;;;0.10;0.10;;;37.50;51.20;;;;;;5027878;28;20034;-92
2021/08/09 07:25:09;;;;;;;0.10;0.10;;;37.40;51.00;;;;;;5028633;28;20038;-92
2021/08/09 07:27:35;;;;;;;0.05;0.05;;;37.60;51.00;;;;;;5021851;28;20037;-91
2021/08/09 07:30:02;;;;;;;0.00;0.00;;;37.80;50.60;;;;;;5019701;28;20080;-91
2021/08/09 07:32:28;;;;;;;0.00;0.00;;;37.80;50.10;;;;;;5029448;28;20028;-91
2021/08/09 07:34:54;;;;;;;0.00;0.00;;;37.80;50.50;;;;;;5032543;28;20021;-92
2021/08/09 07:37:30;;;;;;;0.00;0.00;;;37.90;50.60;;;;;;5031427;28;20099;-92
2021/08/09 07:39:56;;;;;;;0.10;0.10;;;38.30;50.30;;;;;;5027113;28;20041;-93
2021/08/09 07:42:23;;;;;;;0.10;0.10;;;38.60;49.80;;;;;;5022927;28;20041;-92
2021/08/09 07:44:53;;;;;;;0.10;0.10;;;38.70;49.50;;;;;;5023206;28;20064;-92
2021/08/09 07:47:22;;;;;;;0.10;0.10;;;39.00;48.90;;;;;;5022915;28;20061;-93
2021/08/09 07:49:54;;;;;;;0.10;0.10;;;39.10;48.70;;;;;;5023399;28;20045;-93
2021/08/09 07:52:20;;;;;;;0.10;0.10;;;39.20;48.20;;;;;;5026850;28;20095;-93
2021/08/09 07:54:46;;;;;;;0.00;0.00;;;39.40;48.60;;;;;;5032972;28;20038;-92
2021/08/09 07:57:14;;;;;;;0.10;0.10;;;39.50;48.40;;;;;;5047637;28;20053;-92
2021/08/09 07:59:40;;;;;;;0.10;0.10;;;39.80;48.00;;;;;;5035549;28;20104;-90
2021/08/09 08:02:06;;;;;;;0.10;0.10;;;40.00;47.60;;;;;;5067861;23;20069;-90
2021/08/09 08:04:32;;;;;;;0.10;0.10;;;40.00;47.60;;;;;;5009900;28;20099;-89
2021/08/09 08:07:02;;;;;;;0.10;0.10;;;40.10;47.70;;;;;;5025073;28;20056;-91
2021/08/09 08:09:28;;;;;;;0.10;0.10;;;40.40;47.70;;;;;;5011215;28;20030;-90
2021/08/09 08:11:53;;;;;;;0.10;0.10;;;40.70;47.40;;;;;;5004052;28;20116;-91
2021/08/09 08:14:19;;;;;;;0.00;0.00;;;41.10;47.20;;;;;;5004939;28;20487;-90
2021/08/09 08:16:46;;;;;;;0.08;0.08;;;41.20;46.90;;;;;;5004349;28;20040;-90
2021/08/09 08:19:12;;;;;;;0.10;0.10;;;41.40;46.70;;;;;;5005467;28;20042;-89
2021/08/09 08:21:38;;;;;;;0.10;0.10;;;41.50;46.30;;;;;;5012268;28;20052;-89
2021/08/09 08:24:04;;;;;;;0.10;0.10;;;41.70;45.60;;;;;;5006654;28;20033;-90
2021/08/09 08:26:30;;;;;;;0.10;0.10;;;41.60;45.60;;;;;;5003347;28;20060;-92
2021/08/09 08:28:56;;;;;;;0.10;0.10;;;41.60;45.50;;;;;;5005044;28;20034;-91
2021/08/09 08:31:21;;;;;;;0.10;0.10;;;41.70;45.30;;;;;;5007132;28;20106;-91
2021/08/09 08:33:47;;;;;;;0.10;0.10;;;41.70;45.40;;;;;;5005394;28;20034;-90
2021/08/09 08:36:13;;;;;;;0.10;0.10;;;41.90;45.40;;;;;;5029814;28;20479;-92
2021/08/09 08:38:39;;;;;;;0.10;0.10;;;42.00;45.10;;;;;;5008004;28;20134;-92
2021/08/09 08:41:06;;;;;;;0.10;0.10;;;42.00;44.90;;;;;;5005053;28;20060;-90
2021/08/09 08:43:39;;;;;;;0.13;0.13;;;42.20;44.80;;;;;;5012934;28;20037;-91
2021/08/09 08:46:07;;;;;;;0.10;0.10;;;42.40;44.50;;;;;;5007800;28;20133;-92
2021/08/09 08:48:35;;;;;;;0.10;0.10;;;42.70;44.50;;;;;;5020601;28;20038;-90
2021/08/09 08:51:01;;;;;;;0.10;0.10;;;42.80;44.00;;;;;;5006458;28;20038;-91
2021/08/09 08:53:30;;;;;;;0.10;0.10;;;42.70;43.70;;;;;;5021519;28;20084;-89
2021/08/09 08:55:56;;;;;;;0.10;0.10;;;42.60;44.00;;;;;;5020889;28;20068;-91
2021/08/09 08:58:22;;;;;;;0.17;0.17;;;42.70;44.00;;;;;;5005006;28;20059;-90
2021/08/09 09:00:49;;;;;;;0.20;0.20;;;42.80;44.20;;;;;;5005940;28;20038;-91
2021/08/09 09:03:20;;;;;;;0.10;0.10;;;43.10;44.20;;;;;;5010494;28;20072;-92
2021/08/09 09:05:59;;;;;;;0.13;0.13;;;43.50;44.00;;;;;;5011524;28;20026;-91
2021/08/09 09:08:47;;;;;;;0.20;0.20;;;43.90;43.40;;;;;;5028320;28;20060;-92
2021/08/09 09:11:33;;;;;;;0.20;0.20;;;44.00;42.30;;;;;;5009377;28;20034;-91
2021/08/09 09:14:01;;;;;;;0.20;0.20;;;43.90;43.10;;;;;;4997030;28;20038;-90
2021/08/09 09:16:44;;;;;;;0.20;0.20;;;43.90;42.80;;;;;;5032807;28;20034;-90
2021/08/09 09:19:27;;;;;;;0.20;0.20;;;43.80;42.50;;;;;;5013795;28;20026;-90
2021/08/09 09:21:53;;;;;;;0.10;0.10;;;43.60;42.80;;;;;;5002820;28;20487;-91
2021/08/09 09:24:20;;;;;;;0.10;0.10;;;43.80;43.00;;;;;;5002809;28;20033;-90
2021/08/09 09:26:56;;;;;;;0.20;0.20;;;44.00;42.80;;;;;;5002655;28;20487;-90
2021/08/09 09:29:23;;;;;;;0.20;0.20;;;44.00;42.40;;;;;;5003533;28;20437;-90
2021/08/09 09:31:51;;;;;;;0.20;0.20;;;44.10;42.70;;;;;;5003816;28;20029;-91
2021/08/09 09:34:18;;;;;;;0.20;0.20;;;44.50;42.50;;;;;;5002018;28;20034;-91
2021/08/09 09:36:45;;;;;;;0.10;0.10;;;44.80;42.10;;;;;;5001818;28;20042;-90
2021/08/09 09:39:34;;;;;;;0.20;0.20;;;45.10;41.80;;;;;;5001038;28;20030;-90
2021/08/09 09:42:05;;;;;;;0.20;0.20;;;45.10;41.50;;;;;;5000582;28;20042;-91
2021/08/09 09:44:33;;;;;;;0.20;0.20;;;45.20;41.40;;;;;;5002493;28;20121;-90
2021/08/09 09:47:21;;;;;;;0.20;0.20;;;45.40;41.50;;;;;;5030482;28;20073;-91
2021/08/09 09:50:00;;;;;;;0.20;0.20;;;45.80;41.00;;;;;;5019256;28;20049;-90
2021/08/09 09:52:33;;;;;;;0.20;0.20;;;46.00;41.00;;;;;;5010338;28;20017;-89
2021/08/09 09:55:01;;;;;;;0.20;0.20;;;45.90;40.60;;;;;;5005549;28;20073;-91
2021/08/09 09:57:27;;;;;;;0.20;0.20;;;45.60;40.80;;;;;;5003232;28;20517;-88
2021/08/09 09:59:58;;;;;;;0.20;0.20;;;45.20;41.00;;;;;;5005461;28;20449;-89
2021/08/09 10:02:25;;;;;;;0.20;0.20;;;45.30;41.00;;;;;;5002319;28;20046;-90
2021/08/09 10:04:51;;;;;;;0.20;0.20;;;45.40;41.20;;;;;;5001983;28;20041;-90
2021/08/09 10:07:25;;;;;;;0.20;0.20;;;45.40;41.10;;;;;;5006355;28;20053;-89
2021/08/09 10:09:53;;;;;;;0.20;0.20;;;45.70;41.20;;;;;;5002548;28;20054;-90
2021/08/09 10:12:24;;;;;;;0.20;0.20;;;46.20;41.00;;;;;;5022450;28;20030;-90
2021/08/09 10:14:52;;;;;;;0.22;0.22;;;46.60;40.40;;;;;;4999967;28;20041;-90
2021/08/09 10:17:18;;;;;;;0.30;0.30;;;46.50;40.10;;;;;;5000202;28;20046;-90
2021/08/09 10:19:47;;;;;;;0.20;0.20;;;46.40;40.20;;;;;;5000861;28;20132;-90
2021/08/09 10:22:13;;;;;;;0.20;0.20;;;46.40;40.00;;;;;;5016334;28;20026;-90
2021/08/09 10:24:41;;;;;;;0.20;0.20;;;46.40;40.00;;;;;;5010338;28;20038;-90
2021/08/09 10:27:07;;;;;;;0.20;0.20;;;46.30;39.80;;;;;;5001125;28;20050;-90
2021/08/09 10:29:33;;;;;;;0.20;0.20;;;46.20;39.80;;;;;;5000679;28;20030;-92
2021/08/09 10:32:20;;;;;;;0.20;0.20;;;46.20;39.90;;;;;;5000146;28;20042;-90
2021/08/09 10:34:46;;;;;;;0.20;0.20;;;46.30;39.00;;;;;;5001935;28;20034;-87
2021/08/09 10:37:17;;;;;;;0.20;0.20;;;46.30;39.80;;;;;;5004314;28;20068;-90
2021/08/09 10:40:02;;;;;;;0.20;0.20;;;46.20;39.50;;;;;;5003255;28;20045;-91
2021/08/09 10:42:37;;;;;;;0.20;0.20;;;46.20;39.90;;;;;;4999274;28;20042;-91
2021/08/09 10:45:12;;;;;;;0.20;0.20;;;46.30;39.70;;;;;;5000048;28;20040;-90
2021/08/09 10:47:49;;;;;;;0.20;0.20;;;46.50;39.60;;;;;;5001212;28;20050;-88
2021/08/09 10:50:24;;;;;;;0.20;0.20;;;46.80;39.20;;;;;;5032647;28;20064;-91
2021/08/09 10:52:51;;;;;;;0.20;0.20;;;46.80;39.10;;;;;;5017122;28;20038;-90
2021/08/09 10:55:32;;;;;;;0.20;0.20;;;46.60;39.20;;;;;;4998311;28;20125;-90
2021/08/09 10:58:02;;;;;;;0.20;0.20;;;46.10;39.10;;;;;;5000982;28;20405;-89
2021/08/09 11:00:40;;;;;;;0.20;0.20;;;46.00;39.70;;;;;;5007466;28;20041;-91
2021/08/09 11:03:13;;;;;;;0.20;0.20;;;46.20;39.60;;;;;;5003677;28;20053;-91
2021/08/09 11:05:39;;;;;;;0.20;0.20;;;46.20;39.40;;;;;;5007150;28;20512;-90
2021/08/09 11:08:18;;;;;;;0.20;0.20;;;46.10;39.40;;;;;;5006806;28;20037;-90
2021/08/09 11:11:04;;;;;;;0.20;0.20;;;46.10;39.50;;;;;;5013222;28;20065;-92
2021/08/09 11:13:56;;;;;;;0.20;0.20;;;46.30;38.80;;;;;;5016588;28;20026;-89
2021/08/09 11:16:31;;;;;;;0.20;0.20;;;46.80;38.90;;;;;;5016626;28;20041;-89
2021/08/09 11:18:58;;;;;;;0.20;0.20;;;46.90;38.80;;;;;;5011293;28;20038;-89
2021/08/09 11:21:24;;;;;;;0.20;0.20;;;46.80;38.80;;;;;;5001338;28;20057;-90
2021/08/09 11:23:50;;;;;;;0.20;0.20;;;46.70;38.90;;;;;;5000666;28;20092;-91
2021/08/09 11:26:27;;;;;;;0.20;0.20;;;46.70;38.80;;;;;;4999655;28;20050;-92
2021/08/09 11:28:58;;;;;;;0.22;0.22;;;46.50;38.50;;;;;;4999598;28;20136;-91
2021/08/09 11:33:31;;;;;;;0.20;0.20;;;46.10;38.60;;;;;;5097041;28;20445;-89
2021/08/09 11:36:01;;;;;;;0.20;0.20;;;46.30;39.20;;;;;;5076870;28;20028;-89
2021/08/09 11:38:29;;;;;;;0.20;0.20;;;46.30;38.80;;;;;;5074006;28;20539;-89
2021/08/09 11:41:03;;;;;;;0.20;0.20;;;46.30;38.80;;;;;;5073885;28;20029;-89
2021/08/09 11:43:30;;;;;;;0.20;0.20;;;46.50;38.90;;;;;;5074380;28;20039;-89
2021/08/09 11:46:03;;;;;;;0.15;0.15;;;46.80;38.70;;;;;;5073005;28;20095;-90
2021/08/09 11:48:34;;;;;;;0.20;0.20;;;47.10;38.50;;;;;;5073610;28;20047;-90
2021/08/09 11:51:06;;;;;;;0.20;0.20;;;46.80;37.60;;;;;;5073890;28;20423;-89
2021/08/09 11:53:33;;;;;;;;;;;46.10;38.00;;;;;;5085746;28;20109;-89
2021/08/09 11:56:10;;;;;;;0.10;0.10;;;45.30;38.50;;;;;;5075868;28;19904;-90
2021/08/09 11:58:37;;;;;;;0.10;0.10;;;45.40;39.10;;;;;;5073318;28;20048;-90
2021/08/09 12:01:12;;;;;;;0.17;0.17;;;45.40;38.90;;;;;;5076328;28;20017;-90
2021/08/09 12:03:38;;;;;;;0.20;0.20;;;45.80;39.00;;;;;;5090294;28;20024;-90
2021/08/09 12:06:24;;;;;;;0.20;0.20;;;46.20;38.70;;;;;;5086939;28;20084;-89
2021/08/09 12:08:58;;;;;;;0.10;0.10;;;46.60;38.20;;;;;;5091036;28;20104;-89
2021/08/09 12:11:30;;;;;;;0.10;0.10;;;46.60;37.80;;;;;;5087796;28;20074;-90
2021/08/09 12:14:04;;;;;;;0.20;0.20;;;46.30;37.90;;;;;;5072038;28;20036;-90
2021/08/09 12:16:43;;;;;;;0.20;0.20;;;46.30;37.80;;;;;;5075767;28;20025;-90
2021/08/09 12:19:11;;;;;;;0.10;0.10;;;45.80;37.90;;;;;;5073533;28;20040;-89
2021/08/09 12:21:37;;;;;;;0.10;0.10;;;45.50;37.90;;;;;;5074329;28;20044;-89
2021/08/09 12:24:03;;;;;;;0.10;0.10;;;45.30;38.10;;;;;;5084997;28;20025;-89
2021/08/09 12:26:33;;;;;;;0.10;0.10;;;45.20;38.00;;;;;;5089382;28;20540;-90
2021/08/09 12:29:02;;;;;;;0.10;0.10;;;45.20;38.00;;;;;;5079432;28;20083;-89
2021/08/09 12:31:47;;;;;;;0.10;0.10;;;45.10;38.20;;;;;;5073072;28;20086;-91
2021/08/09 12:34:15;;;;;;;0.20;0.20;;;45.10;38.20;;;;;;5070489;28;20028;-89
2021/08/09 12:36:42;;;;;;;0.10;0.10;;;45.10;38.30;;;;;;5073695;28;20123;-89
2021/08/09 12:39:09;;;;;;;0.10;0.10;;;45.50;38.20;;;;;;5074005;28;20071;-89
2021/08/09 12:41:35;;;;;;;0.10;0.10;;;46.00;38.00;;;;;;5071571;28;20037;-88
2021/08/09 12:44:04;;;;;;;0.10;0.10;;;46.10;37.70;;;;;;5062074;28;20451;-89
2021/08/09 12:46:31;;;;;;;0.10;0.10;;;46.10;37.50;;;;;;5056938;28;20060;-90
2021/08/09 12:48:57;;;;;;;0.10;0.10;;;45.70;37.20;;;;;;5056181;28;20482;-89
2021/08/09 12:51:23;;;;;;;0.20;0.20;;;45.30;37.30;;;;;;5058025;28;20079;-91
2021/08/09 12:53:49;;;;;;;0.10;0.10;;;45.10;37.60;;;;;;5058606;28;20025;-88
2021/08/09 12:56:14;;;;;;;0.10;0.10;;;45.50;37.60;;;;;;5076850;28;20024;-89
2021/08/09 12:58:40;;;;;;;0.10;0.10;;;45.60;37.20;;;;;;5075275;28;20017;-89